Coolidge, Georgia
Current Conditions -  °F | °C
As of 9:55 AM on Tuesday 21 Oct 2014 (Local Time) from KMGR Reporting Station
Clear Clear  
Wind Chill: 68°   Ceiling: Unl
Heat Index: 68°   Visibility: 10mi
Dew Point: 59°   Wind: 0mph
Humidity: 73%   Direction: NA
Pressure: 30.03"   Gusts: NA
Location:  31.01°N, 83.87°W
Report Text: KMGR 211355Z AUTO 00000KT 10SM CLR 20/15 A3003 RMK AO2
Loading
Personal Weather Stations






























Interactive Weather Map
Tropical Storm Tracking
New forecast layout! Learn more

10-Day Weather Forecast

Advertisements
Track Severe Weather on mobile